Terminal Aerodrome Forecast
Issued by NWS

Home | Current Version | Previous Version | Text Only | Print | Product List | Glossary On
Versions: 1 2 3 4 5 6 7 8 9 10 11 12 13 14 15 16 17 18 19 20 21 22 23 24
586
FTUS45 KFGZ 201120
TAFSEZ
TAF
KSEZ 201120Z 2012/2112 36005KT P6SM FEW100
     FM201900 20010KT P6SM BKN050
      TEMPO 2019/2023 VRB10G20KT 6SM -TSRA BKN060CB
     FM210300 VRB05KT P6SM BKN080=

USA.gov is the U.S. government's official web portal to all federal, state and local government web resources and services.